This is the latest recevied weather packets stored in our database for station/object K4KMJ. If no packets are shown the sender has not sent any weather packets the latest 10 day(s).
| Time | Temp. | Humidity | Pressure | Rain* | Wind** | Luminosity | Snow |
|---|---|---|---|---|---|---|---|
| 1778009535 | 27.22° C | 56% | 1017.5 hPa | 0 mm | - | 335 W/m² | - |
| 1778009233 | 28.33° C | 56% | 1017.6 hPa | 0 mm | - | 799 W/m² | - |
| 1778008929 | 27.78° C | 56% | 1017.5 hPa | 0 mm | - | 745 W/m² | - |
| 1778008628 | 27.22° C | 57% | 1017.7 hPa | 0 mm | - | 758 W/m² | - |
| 1778008326 | 27.22° C | 57% | 1017.8 hPa | 0 mm | - | 747 W/m² | - |
| 1778008022 | 26.67° C | 58% | 1017.7 hPa | 0 mm | - | 840 W/m² | - |
| 1778007716 | 26.67° C | 58% | 1017.9 hPa | 0 mm | - | 210 W/m² | - |
| 1778007413 | 27.22° C | 58% | 1017.7 hPa | 0 mm | - | 913 W/m² | - |
| 1778007110 | 27.22° C | 57% | 1017.8 hPa | 0 mm | - | 518 W/m² | - |
| 1778006806 | 27.22° C | 57% | 1018 hPa | 0 mm | - | 743 W/m² | - |
| 1778006503 | 27.22° C | 57% | 1017.8 hPa | 0 mm | - | 1049 W/m² | - |
| 1778006200 | 27.22° C | 57% | 1018.1 hPa | 0 mm | - | 869 W/m² | - |
| 1778005898 | 27.22° C | 58% | 1018.1 hPa | 0 mm | - | 434 W/m² | - |
| 1778005593 | 27.22° C | 58% | 1018 hPa | 0 mm | - | 400 W/m² | - |
| 1778005291 | 27.22° C | 57% | 1018.3 hPa | 0 mm | - | 321 W/m² | - |
| 1778004987 | 27.78° C | 58% | 1018.4 hPa | 0 mm | - | 991 W/m² | - |
| 1778004685 | 27.22° C | 58% | 1018.5 hPa | 0 mm | - | 941 W/m² | - |
| 1778004380 | 27.78° C | 58% | 1018.4 hPa | 0 mm | - | 940 W/m² | - |
| 1778004078 | 27.22° C | 59% | 1018.4 hPa | 0 mm | - | 642 W/m² | - |
| 1778003774 | 26.67° C | 59% | 1018.4 hPa | 0 mm | - | 379 W/m² | - |
| 1778003470 | 27.22° C | 59% | 1018.5 hPa | 0 mm | - | 914 W/m² | - |
| 1778003167 | 27.22° C | 60% | 1018.5 hPa | 0 mm | - | 929 W/m² | - |
| 1778002863 | 26.67° C | 61% | 1018.5 hPa | 0 mm | - | 1056 W/m² | - |
| 1778002560 | 26.67° C | 60% | 1018.2 hPa | 0 mm | - | 294 W/m² | - |
| 1778002257 | 27.22° C | 60% | 1018.3 hPa | 0 mm | - | 587 W/m² | - |
* Rain latest hour (hover to see other rain measurements)
** Current wind speed in m/s (hover to see current wind gust speed)